Arbyrd, Missouri
Current Conditions -  °F | °C
As of 6:53 PM on Friday 28 Nov 2014 (Local Time) from KHKA Reporting Station
Clear Clear  
Wind Chill: 40°   Ceiling: Unl
Heat Index: 45°   Visibility: 10mi
Dew Point: 29°   Wind: 9mph
Humidity: 53%   Direction: 190°S
Pressure: 30.1"   Gusts: NA
Location:  36.05°N, 90.24°W
Report Text: KHKA 290053Z AUTO 19008KT 10SM CLR 07/M02 A3010 RMK AO2 SLP194 T00721017
Loading
Personal Weather Stations






























Interactive Weather Map New forecast layout! Learn more

10-Day Weather Forecast

Advertisements
Track Severe Weather on mobile